Time;durP1;ratioP1;P1;durP2;ratioP2;P2;SDS_P1;SDS_P2;PMS_P1;PMS_P2;Temp;Humidity;BMP_temperature;BMP_pressure;BME280_temperature;BME280_humidity;BME280_pressure;Samples;Min_cycle;Max_cycle;Signal;HPM_P1;HPM_P2
2022/01/13 00:01:19;;;;;;;12.85;5.35;;;-13.00;84.40;;;;;;5037957;28;20467;-91
2022/01/13 00:03:45;;;;;;;10.18;5.03;;;-13.10;84.50;;;;;;5058532;28;20056;-93
2022/01/13 00:06:14;;;;;;;13.20;4.93;;;-13.10;85.10;;;;;;5060983;28;20043;-90
2022/01/13 00:08:40;;;;;;;12.82;5.97;;;-13.10;84.00;;;;;;5046123;28;20053;-91
2022/01/13 00:11:06;;;;;;;16.42;6.43;;;-13.00;84.80;;;;;;5042773;28;20174;-91
2022/01/13 00:13:45;;;;;;;18.42;6.47;;;-13.10;85.70;;;;;;5057914;28;20053;-92
2022/01/13 00:20:09;;;;;;;15.25;6.07;;;-13.20;86.80;;;;;;5056946;28;20032;-93
2022/01/13 00:21:57;;;;;;;11.20;5.03;;;-13.20;86.50;;;;;;5025659;28;20139;-92
2022/01/13 00:24:26;;;;;;;19.17;7.13;;;-13.30;87.90;;;;;;5039218;28;20502;-92
2022/01/13 00:26:53;;;;;;;19.80;7.95;;;-13.30;87.70;;;;;;5038882;28;20361;-92
2022/01/13 00:29:25;;;;;;;18.42;7.97;;;-13.30;88.20;;;;;;5057339;28;20031;-93
2022/01/13 00:31:51;;;;;;;20.73;7.50;;;-13.30;90.10;;;;;;5039254;28;20390;-92
2022/01/13 00:34:20;;;;;;;18.55;7.38;;;;;;;;;;5038910;28;20037;-91
2022/01/13 00:36:46;;;;;;;19.05;7.35;;;-13.40;86.40;;;;;;5064087;28;20028;-92
2022/01/13 00:39:12;;;;;;;27.58;10.68;;;-13.40;87.70;;;;;;5062205;28;20100;-91
2022/01/13 00:41:39;;;;;;;27.45;8.85;;;-13.50;86.30;;;;;;5044845;28;20135;-92
2022/01/13 00:44:06;;;;;;;45.28;14.07;;;-13.50;86.60;;;;;;5041869;28;20048;-91
2022/01/13 00:46:43;;;;;;;47.50;14.43;;;-13.50;86.40;;;;;;5039324;28;20017;-91
2022/01/13 00:49:12;;;;;;;36.78;12.02;;;-13.50;87.00;;;;;;5037301;28;20051;-91
2022/01/13 00:51:39;;;;;;;36.42;13.15;;;-13.60;86.10;;;;;;5055006;28;20036;-91
2022/01/13 00:54:07;;;;;;;30.77;11.40;;;-13.60;85.30;;;;;;5055086;28;20053;-89
2022/01/13 00:56:34;;;;;;;38.97;12.85;;;-13.70;86.40;;;;;;5036668;28;20052;-92
2022/01/13 00:59:03;;;;;;;45.72;15.35;;;-13.70;86.00;;;;;;5037100;28;20111;-93
2022/01/13 01:01:29;;;;;;;42.10;13.88;;;-13.60;85.70;;;;;;5053919;28;20033;-92
2022/01/13 01:03:55;;;;;;;46.05;15.25;;;-13.60;85.50;;;;;;5036756;28;20075;-93
2022/01/13 01:06:21;;;;;;;39.63;13.52;;;-13.60;85.60;;;;;;5020493;28;20033;-92
2022/01/13 01:08:46;;;;;;;34.65;13.07;;;-13.60;85.50;;;;;;5054955;28;20067;-93
2022/01/13 01:11:12;;;;;;;24.52;9.90;;;-13.60;85.50;;;;;;5055275;28;20033;-93
2022/01/13 01:13:39;;;;;;;33.13;13.00;;;-13.70;85.80;;;;;;5056760;28;20049;-90
2022/01/13 01:16:08;;;;;;;22.77;10.10;;;-13.70;85.30;;;;;;5054383;28;20025;-93
2022/01/13 01:19:00;;;;;;;21.13;9.18;;;;;;;;;;5051408;28;20060;-94
2022/01/13 01:27:18;;;;;;;19.02;7.60;;;-13.80;84.40;;;;;;5063624;28;20025;-94
2022/01/13 01:29:53;;;;;;;31.30;12.80;;;-13.80;85.60;;;;;;5035001;28;20313;-95
2022/01/13 01:32:36;;;;;;;58.42;18.42;;;-13.80;85.20;;;;;;5045224;28;20032;-94
2022/01/13 01:35:17;;;;;;;73.03;23.98;;;;;;;;;;5042154;28;20033;-96
2022/01/13 01:37:44;;;;;;;87.28;27.02;;;-14.00;85.60;;;;;;5038393;28;20033;-94
2022/01/13 01:40:14;;;;;;;90.30;26.30;;;-14.00;85.60;;;;;;5057172;28;20029;-94
2022/01/13 01:42:40;;;;;;;114.78;31.15;;;-14.00;86.00;;;;;;5037347;28;20037;-92
2022/01/13 01:45:08;;;;;;;112.05;32.17;;;-14.00;90.10;;;;;;5036775;28;20029;-91
2022/01/13 01:47:34;;;;;;;69.43;21.25;;;-14.00;88.30;;;;;;5036549;28;20048;-91
2022/01/13 01:50:18;;;;;;;44.92;15.15;;;-13.90;89.00;;;;;;5036382;28;20021;-90
2022/01/13 01:52:49;;;;;;;34.47;12.52;;;-13.30;91.60;;;;;;5054516;28;20106;-90
2022/01/13 01:55:16;;;;;;;32.30;11.43;;;-14.00;89.50;;;;;;5048411;28;20021;-90
2022/01/13 01:57:48;;;;;;;22.42;9.23;;;-14.00;89.90;;;;;;5059249;28;20029;-93
2022/01/13 02:00:16;;;;;;;22.88;8.27;;;-13.50;90.70;;;;;;5040301;28;20028;-91
2022/01/13 02:02:45;;;;;;;14.57;6.50;;;-14.00;90.80;;;;;;5036747;28;20039;-94
2022/01/13 02:05:11;;;;;;;16.27;7.45;;;-14.00;90.40;;;;;;5054124;28;20031;-91
2022/01/13 02:07:38;;;;;;;21.05;8.02;;;-14.00;90.70;;;;;;5036330;28;20070;-93
2022/01/13 02:10:05;;;;;;;21.77;9.15;;;-13.90;90.10;;;;;;5037000;28;20076;-93
2022/01/13 02:12:42;;;;;;;18.67;7.32;;;-13.90;90.40;;;;;;5043970;28;20102;-93
2022/01/13 02:17:40;;;;;;;20.90;8.75;;;-14.00;90.40;;;;;;5060222;28;20471;-93
2022/01/13 02:20:10;;;;;;;20.05;7.60;;;-13.50;90.60;;;;;;5079377;28;20040;-91
2022/01/13 02:22:36;;;;;;;17.08;7.45;;;-13.00;90.90;;;;;;5061969;28;20408;-92
2022/01/13 02:25:03;;;;;;;22.60;8.40;;;-14.00;90.80;;;;;;5046975;28;20037;-93
2022/01/13 02:27:28;;;;;;;20.33;8.63;;;-14.00;90.90;;;;;;5040725;28;20033;-94
2022/01/13 02:29:54;;;;;;;21.33;7.95;;;-14.00;90.90;;;;;;5058239;28;20413;-94
2022/01/13 02:32:20;;;;;;;19.25;9.35;;;-14.00;90.40;;;;;;5040236;28;20033;-94
2022/01/13 02:34:46;;;;;;;18.00;7.88;;;-14.00;89.90;;;;;;5058207;28;20049;-94
2022/01/13 02:37:12;;;;;;;15.00;6.88;;;-14.00;89.20;;;;;;5058348;28;20044;-93
2022/01/13 02:39:38;;;;;;;17.05;6.65;;;-14.00;88.90;;;;;;5040662;28;20039;-93
2022/01/13 02:42:12;;;;;;;18.25;8.10;;;-14.10;91.30;;;;;;5066758;28;20029;-96
2022/01/13 02:44:50;;;;;;;18.17;7.15;;;-14.10;89.90;;;;;;5042197;28;20025;-92
2022/01/13 02:50:05;;;;;;;16.42;6.95;;;-14.10;90.00;;;;;;5064491;28;20112;-93
2022/01/13 02:52:33;;;;;;;20.27;8.32;;;-14.10;91.00;;;;;;5075005;28;20035;-90
2022/01/13 02:54:58;;;;;;;17.55;7.63;;;-14.10;90.30;;;;;;5063513;28;20024;-88
2022/01/13 02:57:24;;;;;;;17.25;7.10;;;-14.00;89.90;;;;;;5062886;28;20029;-88
2022/01/13 02:59:50;;;;;;;16.40;7.22;;;-14.00;90.50;;;;;;5047414;28;20418;-92
2022/01/13 03:02:15;;;;;;;19.27;8.52;;;-14.10;89.60;;;;;;5040705;28;20041;-93
2022/01/13 03:04:48;;;;;;;24.92;11.32;;;-14.00;89.60;;;;;;5041895;28;20029;-92
2022/01/13 03:07:14;;;;;;;19.63;8.35;;;-14.00;90.10;;;;;;5044353;28;20036;-93
2022/01/13 03:09:42;;;;;;;20.52;9.20;;;-14.00;90.00;;;;;;5042003;28;20063;-93
2022/01/13 03:12:08;;;;;;;19.05;8.43;;;-14.00;89.30;;;;;;5058247;28;20025;-93
2022/01/13 03:14:34;;;;;;;20.10;8.35;;;-14.00;89.70;;;;;;5039348;28;20067;-94
2022/01/13 03:17:00;;;;;;;19.15;8.15;;;-14.00;89.40;;;;;;5039994;28;20116;-92
2022/01/13 03:19:25;;;;;;;20.10;7.93;;;-13.80;88.60;;;;;;5058661;28;20025;-92
2022/01/13 03:21:51;;;;;;;20.10;8.93;;;-14.00;88.70;;;;;;5039152;28;20044;-90
2022/01/13 03:24:16;;;;;;;19.40;8.10;;;-14.00;89.30;;;;;;5047298;28;20067;-88
2022/01/13 03:26:44;;;;;;;19.23;8.15;;;-14.10;90.00;;;;;;5048898;28;20067;-91
2022/01/13 03:31:36;;;;;;;15.73;7.45;;;-14.10;89.40;;;;;;5055929;28;20056;-90
2022/01/13 03:34:02;;;;;;;21.45;8.80;;;-14.10;89.10;;;;;;5055930;28;20024;-90
2022/01/13 03:36:34;;;;;;;24.10;8.95;;;-14.10;89.60;;;;;;5038136;28;20414;-91
2022/01/13 03:39:00;;;;;;;21.23;8.55;;;-14.00;88.50;;;;;;5037495;28;20029;-89
2022/01/13 03:41:26;;;;;;;18.77;7.57;;;-14.00;87.90;;;;;;5031105;28;20033;-89
2022/01/13 03:43:54;;;;;;;19.15;7.82;;;-14.00;88.50;;;;;;5018232;28;20036;-90
2022/01/13 03:46:20;;;;;;;16.92;8.55;;;-14.10;87.90;;;;;;5017841;28;20025;-89
2022/01/13 03:48:46;;;;;;;25.27;9.27;;;-14.10;88.70;;;;;;5017689;28;20451;-90
2022/01/13 03:51:12;;;;;;;21.17;8.40;;;-14.10;88.20;;;;;;5018557;28;20083;-89
2022/01/13 03:54:15;;;;;;;20.98;9.20;;;-14.10;88.40;;;;;;5035886;28;20456;-91
2022/01/13 03:57:18;;;;;;;28.98;10.13;;;-14.10;88.50;;;;;;5019245;28;20387;-91
2022/01/13 03:59:53;;;;;;;32.47;11.05;;;-14.20;90.00;;;;;;5018160;28;20116;-92
2022/01/13 04:02:19;;;;;;;33.33;11.77;;;-14.20;88.80;;;;;;5019894;28;20113;-90
2022/01/13 04:04:49;;;;;;;28.05;9.98;;;-14.30;88.60;;;;;;5023781;28;20425;-90
2022/01/13 04:07:25;;;;;;;26.50;9.98;;;-14.30;88.60;;;;;;5018640;28;20029;-91
2022/01/13 04:09:50;;;;;;;25.83;9.38;;;-17.40;86.40;;;;;;5018566;28;20045;-89
2022/01/13 04:12:18;;;;;;;22.83;9.23;;;-14.30;87.70;;;;;;5036432;28;20044;-92
2022/01/13 04:14:48;;;;;;;27.63;11.25;;;-14.30;88.10;;;;;;5017433;28;20053;-90
2022/01/13 04:17:16;;;;;;;25.35;10.13;;;-14.40;88.00;;;;;;5017735;28;20521;-90
2022/01/13 04:19:43;;;;;;;23.27;9.07;;;-14.40;87.60;;;;;;5017660;28;20044;-91
2022/01/13 04:22:10;;;;;;;23.95;10.00;;;-14.40;88.20;;;;;;5021775;28;20045;-91
2022/01/13 04:24:38;;;;;;;22.65;9.40;;;-14.50;88.10;;;;;;5036096;28;20025;-92
2022/01/13 04:27:05;;;;;;;23.27;9.77;;;-14.60;87.90;;;;;;5035432;28;20029;-90
2022/01/13 04:29:36;;;;;;;22.02;8.88;;;-14.50;88.00;;;;;;5047023;28;20080;-89
2022/01/13 04:32:04;;;;;;;53.03;17.60;;;-14.60;88.20;;;;;;5010489;28;20037;-89
2022/01/13 04:34:31;;;;;;;65.65;20.25;;;-14.60;88.90;;;;;;5039179;28;20025;-89
2022/01/13 04:36:59;;;;;;;51.00;17.23;;;-14.60;89.20;;;;;;5016926;28;20025;-91
2022/01/13 04:39:27;;;;;;;82.75;25.00;;;-14.60;88.90;;;;;;5017803;28;20455;-90
2022/01/13 04:41:53;;;;;;;108.55;30.40;;;-14.60;90.00;;;;;;5034434;28;20029;-91
2022/01/13 04:44:22;;;;;;;105.25;31.45;;;-14.60;89.20;;;;;;5036377;28;20113;-91
2022/01/13 04:46:49;;;;;;;95.28;29.30;;;-13.60;89.70;;;;;;5016909;28;20025;-93
2022/01/13 04:49:18;;;;;;;76.53;24.08;;;-13.90;90.30;;;;;;5018544;28;20025;-93
2022/01/13 04:51:45;;;;;;;58.47;19.52;;;-14.70;89.40;;;;;;5019242;28;20057;-93
2022/01/13 04:54:11;;;;;;;50.78;17.23;;;-12.90;90.30;;;;;;5020661;28;20029;-86
2022/01/13 04:57:02;;;;;;;39.00;13.32;;;-14.70;89.40;;;;;;5018307;28;20048;-90
2022/01/13 04:59:29;;;;;;;37.33;12.90;;;-12.90;88.90;;;;;;5018042;28;20128;-90
2022/01/13 05:02:00;;;;;;;29.85;10.55;;;-14.70;88.30;;;;;;5035671;28;20524;-90
2022/01/13 05:04:25;;;;;;;;;;;-14.70;89.00;;;;;;5019322;28;20041;-90
2022/01/13 05:06:51;;;;;;;32.08;11.95;;;-14.70;89.10;;;;;;5034297;28;20292;-91
2022/01/13 05:09:17;;;;;;;36.95;12.95;;;-14.80;88.20;;;;;;5018176;28;20111;-85
2022/01/13 05:11:43;;;;;;;42.70;16.02;;;;;;;;;;5031760;28;20112;-81
2022/01/13 05:14:09;;;;;;;39.88;15.10;;;;;;;;;;5052267;28;20021;-83
2022/01/13 05:16:53;;;;;;;44.78;15.55;;;-14.80;87.80;;;;;;5052668;28;20025;-88
2022/01/13 05:19:25;;;;;;;39.95;12.77;;;-14.80;88.00;;;;;;5036044;28;20078;-87
2022/01/13 05:24:20;;;;;;;29.75;11.05;;;-14.80;88.40;;;;;;5053466;28;20134;-84
2022/01/13 05:26:45;;;;;;;27.77;10.85;;;-14.80;88.50;;;;;;5036460;28;20494;-83
2022/01/13 05:29:17;;;;;;;26.17;9.60;;;;;;;;;;5060191;28;20025;-85
2022/01/13 05:31:42;;;;;;;24.40;9.00;;;-14.90;88.40;;;;;;5051392;28;20021;-89
2022/01/13 05:34:08;;;;;;;21.73;8.90;;;-14.90;88.40;;;;;;5053414;28;20048;-86
2022/01/13 05:36:34;;;;;;;19.75;8.95;;;-13.90;89.70;;;;;;5028823;28;20026;-86
2022/01/13 05:38:59;;;;;;;20.83;8.75;;;-14.90;89.20;;;;;;5023816;28;20023;-84
2022/01/13 05:41:25;;;;;;;20.00;8.20;;;-14.90;88.80;;;;;;4998209;28;20042;-85
2022/01/13 05:43:51;;;;;;;19.58;8.65;;;;;;;;;;5032485;28;20399;-84
2022/01/13 05:46:17;;;;;;;19.45;8.77;;;-14.90;90.30;;;;;;5032434;28;20021;-84
2022/01/13 05:48:42;;;;;;;25.48;9.98;;;-15.00;90.50;;;;;;5016913;28;20171;-83
2022/01/13 05:51:08;;;;;;;27.25;10.15;;;-14.80;90.50;;;;;;5015950;28;20455;-86
2022/01/13 05:53:34;;;;;;;23.90;8.95;;;-14.40;90.90;;;;;;5032954;28;20492;-86
2022/01/13 05:55:59;;;;;;;28.67;10.60;;;-14.60;90.80;;;;;;5032419;28;20072;-86
2022/01/13 05:58:25;;;;;;;35.88;13.35;;;-14.50;90.60;;;;;;5032734;28;20017;-84
2022/01/13 06:00:51;;;;;;;40.83;14.10;;;-14.40;90.50;;;;;;5015206;28;20053;-85
2022/01/13 06:03:16;;;;;;;58.20;19.33;;;-14.10;90.60;;;;;;5033918;28;20032;-86
2022/01/13 06:05:45;;;;;;;66.00;21.77;;;-14.30;90.10;;;;;;5034800;28;20053;-85
2022/01/13 06:08:11;;;;;;;54.08;16.13;;;;;;;;;;5035909;28;20060;-84
2022/01/13 06:10:42;;;;;;;45.20;14.35;;;-13.00;90.60;;;;;;5018672;28;20038;-85
2022/01/13 06:13:08;;;;;;;43.42;15.70;;;;;;;;;;5018328;28;20029;-82
2022/01/13 06:15:37;;;;;;;226.20;63.30;;;-12.80;90.80;;;;;;5018538;28;20124;-80
2022/01/13 06:18:03;;;;;;;88.50;29.38;;;-14.00;91.10;;;;;;5019189;28;20376;-91
2022/01/13 06:20:28;;;;;;;69.75;24.42;;;-13.90;91.50;;;;;;5037415;28;20102;-91
2022/01/13 06:22:54;;;;;;;61.10;21.58;;;-13.70;90.90;;;;;;5037220;28;20022;-84
2022/01/13 06:25:22;;;;;;;48.83;17.08;;;-13.70;90.60;;;;;;5036688;28;20061;-88
2022/01/13 06:27:48;;;;;;;43.95;15.93;;;-13.60;90.50;;;;;;5037725;28;20041;-94
2022/01/13 06:30:15;;;;;;;41.08;14.20;;;-13.60;90.50;;;;;;5038854;28;20105;-96
2022/01/13 06:32:46;;;;;;;35.47;13.93;;;-13.50;90.60;;;;;;5024878;28;20040;-95
2022/01/13 06:35:12;;;;;;;34.92;12.65;;;-13.40;90.50;;;;;;5018479;28;20056;-86
2022/01/13 06:37:41;;;;;;;35.13;13.55;;;-13.40;90.70;;;;;;5019963;28;20033;-85
2022/01/13 06:40:08;;;;;;;30.88;12.43;;;-13.30;90.60;;;;;;5038546;28;20037;-85
2022/01/13 06:42:33;;;;;;;28.58;11.57;;;-13.30;91.00;;;;;;5037756;28;20543;-83
2022/01/13 06:45:00;;;;;;;26.05;9.68;;;-13.30;90.70;;;;;;5035956;28;20105;-83
2022/01/13 06:47:25;;;;;;;18.13;7.68;;;-13.20;90.40;;;;;;5019021;28;20064;-86
2022/01/13 06:49:51;;;;;;;18.83;8.73;;;-13.20;90.50;;;;;;5018917;28;20048;-86
2022/01/13 06:52:19;;;;;;;21.70;8.63;;;-13.20;91.00;;;;;;5037965;28;20039;-81
2022/01/13 06:54:45;;;;;;;17.38;7.60;;;-12.00;91.50;;;;;;5036446;28;20029;-78
2022/01/13 06:57:11;;;;;;;21.30;8.35;;;-13.00;92.80;;;;;;5035746;28;20026;-79
2022/01/13 06:59:36;;;;;;;18.70;9.13;;;-12.70;95.50;;;;;;5034475;28;20384;-78
2022/01/13 07:02:02;;;;;;;24.38;9.25;;;-12.10;97.10;;;;;;5017618;28;20041;-78
2022/01/13 07:04:29;;;;;;;19.65;8.73;;;-11.50;97.60;;;;;;5035350;28;20490;-78
2022/01/13 07:06:55;;;;;;;35.08;16.42;;;-11.00;97.30;;;;;;5017589;28;20059;-78
2022/01/13 07:09:21;;;;;;;90.78;30.17;;;-10.90;97.10;;;;;;5035571;28;20057;-77
2022/01/13 07:11:47;;;;;;;48.78;18.88;;;-10.20;94.40;;;;;;5014927;28;20463;-79
2022/01/13 07:14:13;;;;;;;35.05;13.27;;;-9.80;96.60;;;;;;5046133;28;20033;-79
2022/01/13 07:16:41;;;;;;;30.02;12.00;;;-9.30;95.80;;;;;;5031632;28;20168;-79
2022/01/13 07:19:08;;;;;;;24.83;10.90;;;-8.90;94.10;;;;;;5015031;28;20029;-79
2022/01/13 07:21:34;;;;;;;22.95;10.15;;;-8.50;92.20;;;;;;5015166;28;20050;-79
2022/01/13 07:24:00;;;;;;;25.27;11.57;;;-8.20;91.90;;;;;;5032060;28;20125;-78
2022/01/13 07:26:28;;;;;;;25.00;11.40;;;-7.90;91.00;;;;;;5015213;28;20056;-79
2022/01/13 07:28:54;;;;;;;23.98;10.63;;;-7.60;90.50;;;;;;5031744;28;20036;-79
2022/01/13 07:31:19;;;;;;;21.10;10.60;;;-7.30;88.20;;;;;;5032497;28;20336;-78
2022/01/13 07:33:47;;;;;;;23.38;11.15;;;-7.00;86.30;;;;;;5032911;28;20108;-78
2022/01/13 07:36:13;;;;;;;23.05;10.63;;;-6.70;84.00;;;;;;5015010;28;20087;-78
2022/01/13 07:38:39;;;;;;;21.00;9.88;;;-6.50;82.10;;;;;;5013667;28;20261;-78
2022/01/13 07:41:04;;;;;;;20.42;9.45;;;-6.20;83.00;;;;;;5032270;28;20036;-78
2022/01/13 07:43:31;;;;;;;20.17;8.90;;;-6.00;81.20;;;;;;5014886;28;20022;-78
2022/01/13 07:45:57;;;;;;;21.42;9.85;;;-5.70;81.20;;;;;;5032590;28;20079;-78
2022/01/13 07:48:26;;;;;;;19.50;8.90;;;-5.60;78.40;;;;;;5032435;28;20029;-78
2022/01/13 07:50:52;;;;;;;15.93;7.80;;;-5.50;78.90;;;;;;5014723;28;20033;-78
2022/01/13 07:53:18;;;;;;;16.50;8.05;;;-5.20;77.70;;;;;;5034190;28;20375;-77
2022/01/13 07:55:44;;;;;;;16.60;8.07;;;-5.10;76.30;;;;;;5034541;28;20037;-78
2022/01/13 07:58:10;;;;;;;15.15;7.70;;;-4.90;76.50;;;;;;5016750;28;20025;-78
2022/01/13 08:00:36;;;;;;;14.57;7.43;;;-4.20;76.60;;;;;;5034702;28;20064;-78
2022/01/13 08:03:03;;;;;;;14.80;7.50;;;-4.50;74.80;;;;;;5016551;28;20060;-78
2022/01/13 08:05:29;;;;;;;13.90;7.65;;;-4.40;73.10;;;;;;5034214;28;20045;-78
2022/01/13 08:07:55;;;;;;;18.55;7.97;;;-4.20;68.60;;;;;;5033833;28;20123;-78
2022/01/13 08:10:21;;;;;;;18.10;8.60;;;;;;;;;;5016339;28;20361;-78
2022/01/13 08:12:46;;;;;;;17.13;7.90;;;-3.90;70.90;;;;;;5016417;28;20028;-78
2022/01/13 08:15:14;;;;;;;15.75;8.32;;;-3.80;69.10;;;;;;5016619;28;20025;-78
2022/01/13 08:20:29;;;;;;;15.43;7.05;;;-3.70;68.90;;;;;;5034434;28;20033;-79
2022/01/13 08:22:55;;;;;;;14.75;7.32;;;-3.70;68.50;;;;;;5016327;28;20029;-78
2022/01/13 08:25:21;;;;;;;15.23;7.50;;;-3.50;67.60;;;;;;5034153;28;20037;-79
2022/01/13 08:27:48;;;;;;;17.25;8.65;;;-3.40;67.40;;;;;;5016325;28;20120;-78
2022/01/13 08:30:14;;;;;;;14.93;7.70;;;-3.20;67.10;;;;;;5016195;28;20065;-78
2022/01/13 08:32:39;;;;;;;18.33;8.13;;;-3.00;66.70;;;;;;5034352;28;20038;-78
2022/01/13 08:35:06;;;;;;;12.00;6.82;;;-2.90;65.50;;;;;;5034066;28;20076;-78
2022/01/13 08:37:33;;;;;;;13.77;6.97;;;-2.80;65.70;;;;;;5034070;28;20117;-78
2022/01/13 08:39:59;;;;;;;11.93;7.32;;;-2.50;66.50;;;;;;5016033;28;20037;-77
2022/01/13 08:42:25;;;;;;;14.45;7.47;;;-2.20;66.80;;;;;;5034578;28;20033;-77
2022/01/13 08:44:51;;;;;;;13.27;7.38;;;-1.90;65.30;;;;;;5017945;28;20037;-78
2022/01/13 08:47:17;;;;;;;13.73;7.30;;;-1.70;63.50;;;;;;5034711;28;20029;-79
2022/01/13 08:49:43;;;;;;;13.70;8.10;;;-1.70;63.80;;;;;;5032626;28;20036;-79
2022/01/13 08:52:09;;;;;;;13.45;7.65;;;-1.50;62.00;;;;;;5032546;28;20387;-78
2022/01/13 08:54:35;;;;;;;12.63;6.93;;;-1.50;61.10;;;;;;5015724;28;20025;-78
2022/01/13 08:57:01;;;;;;;12.02;6.63;;;-1.40;61.10;;;;;;5032028;28;20112;-78
2022/01/13 08:59:28;;;;;;;13.13;6.45;;;-1.30;62.10;;;;;;5015860;28;20420;-79
2022/01/13 09:01:56;;;;;;;16.60;7.35;;;-1.20;61.90;;;;;;5033216;28;20464;-78
2022/01/13 09:04:22;;;;;;;13.65;7.00;;;-0.90;61.00;;;;;;5015820;28;20025;-78
2022/01/13 09:06:48;;;;;;;13.10;7.13;;;-0.80;60.60;;;;;;5015991;28;20245;-77
2022/01/13 09:09:14;;;;;;;13.48;7.32;;;-0.60;60.80;;;;;;5032101;28;20041;-78
2022/01/13 09:11:46;;;;;;;17.80;8.52;;;-0.50;60.10;;;;;;5033592;28;20030;-79
2022/01/13 09:14:13;;;;;;;16.50;9.35;;;-0.40;59.20;;;;;;5033418;28;20375;-79
2022/01/13 09:16:45;;;;;;;15.20;8.25;;;-0.40;58.90;;;;;;5016522;28;20475;-78
2022/01/13 09:19:12;;;;;;;14.10;7.88;;;-0.10;57.60;;;;;;5015723;28;20025;-78
2022/01/13 09:21:40;;;;;;;16.48;7.60;;;-0.10;57.30;;;;;;5032888;28;20041;-79
2022/01/13 09:24:10;;;;;;;12.95;7.30;;;0.00;56.60;;;;;;5018268;28;20030;-78
2022/01/13 09:26:35;;;;;;;15.30;7.68;;;0.10;56.90;;;;;;5019570;28;20032;-77
2022/01/13 09:29:02;;;;;;;14.50;7.32;;;0.10;56.00;;;;;;5036084;28;20025;-77
2022/01/13 09:31:28;;;;;;;15.57;7.63;;;0.20;55.70;;;;;;5019839;28;20486;-78
2022/01/13 09:33:54;;;;;;;13.73;7.10;;;0.30;56.40;;;;;;5037110;28;20104;-78
2022/01/13 09:36:20;;;;;;;11.60;7.05;;;0.50;56.30;;;;;;5019440;28;20028;-78
2022/01/13 09:38:46;;;;;;;15.77;7.90;;;0.70;55.60;;;;;;5019409;28;20026;-78
2022/01/13 09:41:12;;;;;;;15.13;7.60;;;0.70;54.50;;;;;;5037089;28;20095;-79
2022/01/13 09:43:41;;;;;;;14.23;7.97;;;1.00;54.80;;;;;;5019358;28;20030;-79
2022/01/13 09:46:07;;;;;;;11.98;6.72;;;1.00;54.70;;;;;;5019398;28;20021;-77
2022/01/13 09:48:33;;;;;;;11.68;6.50;;;1.20;55.20;;;;;;5037442;28;20514;-79
2022/01/13 09:50:59;;;;;;;12.75;6.45;;;1.20;54.70;;;;;;5037145;28;20443;-79
2022/01/13 09:53:24;;;;;;;12.13;6.03;;;1.20;53.80;;;;;;5037155;28;20017;-78
2022/01/13 09:55:50;;;;;;;14.40;6.60;;;0.90;54.00;;;;;;5037013;28;20022;-78
2022/01/13 09:58:16;;;;;;;13.20;6.55;;;0.60;53.40;;;;;;5037050;28;20037;-79
2022/01/13 10:00:44;;;;;;;16.80;7.07;;;0.20;53.50;;;;;;5037020;28;20452;-79
2022/01/13 10:03:12;;;;;;;12.65;6.55;;;-0.20;53.80;;;;;;5018899;28;20186;-78
2022/01/13 10:05:49;;;;;;;13.40;6.43;;;-0.50;53.60;;;;;;5018877;28;20030;-80
2022/01/13 10:08:16;;;;;;;12.18;6.07;;;-0.80;54.30;;;;;;5018465;28;20062;-79
2022/01/13 10:10:46;;;;;;;12.43;6.03;;;-0.90;55.20;;;;;;5019499;28;20051;-79
2022/01/13 10:13:14;;;;;;;11.93;6.47;;;-0.80;55.00;;;;;;5019244;28;20337;-80
2022/01/13 10:18:41;;;;;;;15.02;7.20;;;-0.50;55.50;;;;;;5036842;28;20080;-77
2022/01/13 10:21:10;;;;;;;18.42;7.85;;;-0.40;54.60;;;;;;5018600;28;20040;-78
2022/01/13 10:24:09;;;;;;;15.30;7.75;;;0.20;55.70;;;;;;5018538;28;20026;-79
2022/01/13 10:26:37;;;;;;;15.60;8.10;;;0.90;52.60;;;;;;5036285;28;20032;-79
2022/01/13 10:29:08;;;;;;;16.67;8.57;;;0.90;51.60;;;;;;5018294;28;20049;-78
2022/01/13 10:31:47;;;;;;;;;;;0.40;51.20;;;;;;5019551;28;20034;-79
2022/01/13 10:34:34;;;;;;;15.65;8.10;;;-0.20;51.70;;;;;;5018560;28;19911;-78
2022/01/13 10:37:05;;;;;;;15.40;7.50;;;-0.90;52.10;;;;;;5018696;28;20029;-79
2022/01/13 10:39:57;;;;;;;14.90;7.43;;;-1.40;53.30;;;;;;5018150;28;20033;-79
2022/01/13 10:45:05;;;;;;;14.68;7.10;;;-2.50;55.60;;;;;;5036046;28;20105;-79
2022/01/13 10:47:30;;;;;;;12.55;6.50;;;-2.80;56.50;;;;;;5018306;28;20029;-79
2022/01/13 10:50:09;;;;;;;12.82;7.18;;;-3.00;56.90;;;;;;5036163;28;20081;-77
2022/01/13 10:52:36;;;;;;;19.52;7.30;;;-3.20;57.70;;;;;;5018368;28;20057;-78
2022/01/13 10:55:12;;;;;;;15.95;7.28;;;-3.40;58.00;;;;;;5018126;28;20116;-78
2022/01/13 10:57:41;;;;;;;16.05;7.75;;;-3.50;58.50;;;;;;5036219;28;20025;-80
2022/01/13 11:00:20;;;;;;;14.82;6.90;;;-3.60;59.70;;;;;;5035775;28;20055;-79
2022/01/13 11:02:58;;;;;;;17.15;7.68;;;-3.50;59.70;;;;;;5017751;28;20033;-79
2022/01/13 11:05:25;;;;;;;16.95;7.88;;;-3.50;59.80;;;;;;5035589;28;20033;-79
2022/01/13 11:07:53;;;;;;;14.30;7.25;;;-3.60;59.90;;;;;;5035642;28;20103;-79
2022/01/13 11:10:20;;;;;;;15.02;7.25;;;-3.60;60.20;;;;;;5017334;28;20056;-79
2022/01/13 11:12:55;;;;;;;13.13;6.93;;;-3.70;60.70;;;;;;5017384;28;20044;-80
2022/01/13 11:15:20;;;;;;;18.33;7.38;;;-3.80;61.00;;;;;;5035841;28;20022;-79
2022/01/13 11:17:48;;;;;;;20.17;9.45;;;-3.90;61.60;;;;;;5017883;28;20032;-79
2022/01/13 11:20:19;;;;;;;21.75;9.32;;;-4.00;61.60;;;;;;5036178;28;20026;-80
2022/01/13 11:22:45;;;;;;;;;;;-4.10;61.90;;;;;;5017960;28;20034;-79
2022/01/13 11:25:14;;;;;;;24.30;9.48;;;-4.30;62.70;;;;;;5017556;28;20351;-80
2022/01/13 11:27:41;;;;;;;22.45;10.68;;;-4.40;63.10;;;;;;5035110;28;20030;-80
2022/01/13 11:30:16;;;;;;;18.42;9.80;;;-4.50;63.90;;;;;;5017339;28;20032;-80
2022/01/13 11:32:46;;;;;;;20.35;9.70;;;-4.60;64.40;;;;;;5017305;28;20059;-79
2022/01/13 11:35:28;;;;;;;21.30;9.52;;;-4.60;64.90;;;;;;5034862;28;20030;-80
2022/01/13 11:38:04;;;;;;;19.27;9.65;;;-4.70;65.60;;;;;;5017265;28;20033;-79
2022/01/13 11:40:41;;;;;;;20.75;10.05;;;-4.70;65.70;;;;;;5017393;28;20030;-79
2022/01/13 11:43:21;;;;;;;19.50;9.57;;;-4.80;66.40;;;;;;5034696;28;20035;-78
2022/01/13 11:45:47;;;;;;;20.15;9.63;;;-4.80;66.80;;;;;;5016317;28;20075;-79
2022/01/13 11:48:16;;;;;;;17.73;8.85;;;-4.80;67.20;;;;;;5033800;28;20120;-80
2022/01/13 11:50:52;;;;;;;23.48;10.13;;;-4.80;67.20;;;;;;5035214;28;20033;-79
2022/01/13 11:53:30;;;;;;;23.60;10.13;;;-4.80;67.80;;;;;;5033869;28;20503;-81
2022/01/13 11:56:14;;;;;;;22.27;11.15;;;-4.80;67.90;;;;;;5017264;28;20112;-81
2022/01/13 11:58:47;;;;;;;22.90;11.00;;;-4.90;70.10;;;;;;5034791;28;20087;-81
2022/01/13 12:01:35;;;;;;;20.10;10.32;;;-4.90;69.40;;;;;;5034479;28;20033;-80
2022/01/13 12:04:06;;;;;;;22.95;10.77;;;-4.90;69.20;;;;;;5017248;28;20036;-80
2022/01/13 12:06:35;;;;;;;23.73;10.75;;;-4.90;69.60;;;;;;5016665;28;20065;-81
2022/01/13 12:09:01;;;;;;;21.38;11.00;;;-4.90;69.80;;;;;;5016708;28;20394;-79
2022/01/13 12:11:54;;;;;;;23.75;10.32;;;-4.90;70.30;;;;;;5033895;28;20033;-80
2022/01/13 12:14:32;;;;;;;23.25;10.60;;;-5.00;70.80;;;;;;5016646;28;20361;-79
2022/01/13 12:17:21;;;;;;;22.45;10.70;;;-5.00;70.70;;;;;;5016384;28;20033;-79
2022/01/13 12:19:49;;;;;;;23.20;10.73;;;-5.00;70.80;;;;;;5016745;28;20116;-79
2022/01/13 12:22:27;;;;;;;22.02;10.00;;;-5.10;71.70;;;;;;5032402;28;20065;-80
2022/01/13 12:24:58;;;;;;;25.25;11.77;;;-5.00;71.10;;;;;;5016447;28;20030;-80
2022/01/13 12:27:46;;;;;;;25.33;11.32;;;-5.10;71.60;;;;;;5016330;28;20032;-80
2022/01/13 12:30:24;;;;;;;24.45;11.55;;;-5.10;72.30;;;;;;5034099;28;20464;-80
2022/01/13 12:32:51;;;;;;;23.42;10.88;;;-5.20;72.60;;;;;;5034006;28;20171;-80
2022/01/13 12:35:39;;;;;;;25.48;12.07;;;-5.20;73.30;;;;;;5016240;28;20076;-81
2022/01/13 12:38:27;;;;;;;24.67;11.05;;;-5.30;74.10;;;;;;5016208;28;20376;-82
2022/01/13 12:41:02;;;;;;;25.13;11.80;;;-5.30;74.80;;;;;;5033808;28;20087;-81
2022/01/13 12:46:07;;;;;;;29.52;13.15;;;-5.40;76.90;;;;;;5034536;28;20048;-82
2022/01/13 12:48:33;;;;;;;29.15;13.10;;;-5.40;77.10;;;;;;5016134;28;20361;-81
2022/01/13 12:50:59;;;;;;;30.05;13.32;;;-5.40;77.20;;;;;;5036106;28;20040;-81
2022/01/13 12:53:28;;;;;;;30.33;13.65;;;-5.40;77.70;;;;;;5022024;28;20460;-82
2022/01/13 12:56:01;;;;;;;31.45;13.52;;;-5.40;78.30;;;;;;5019245;28;20029;-81
2022/01/13 12:58:52;;;;;;;32.13;13.90;;;-5.30;78.40;;;;;;5015865;28;20455;-82
2022/01/13 13:01:21;;;;;;;29.95;13.32;;;-5.30;78.70;;;;;;5015134;28;20049;-80
2022/01/13 13:04:10;;;;;;;27.02;11.55;;;-5.30;80.40;;;;;;5033788;28;20067;-80
2022/01/13 13:06:43;;;;;;;22.63;11.10;;;-5.20;79.60;;;;;;5016709;28;20467;-81
2022/01/13 13:09:11;;;;;;;25.35;11.52;;;-5.20;79.40;;;;;;5015228;28;20092;-82
2022/01/13 13:11:50;;;;;;;23.65;11.18;;;-5.10;79.40;;;;;;5015681;28;20075;-82
2022/01/13 13:14:29;;;;;;;28.55;11.45;;;-5.10;79.70;;;;;;5016010;28;20116;-83